CNT7 weather

Picton Airport
Prince Edward County, Ontario, Canada

Public forecast

Using degrees Celsius for public forecast. Weather courtesy of forecast.io.

Closest aviation weather report (METAR) to Picton Airport

Closest report is CFB Trenton, 18.5 nm (34.3 km) WNW. Retrieved 2019/10/20 04:00 UTC (34 minutes ago):

CYTR 200400Z 05006KT 15SM SCT250 02/02 A2996 RMK CI4 SLP148

Closest aviation forecast (TAF) to Picton Airport

Closest forecast is CFB Trenton, 18.5 nm (34.3 km) WNW. Retrieved 2019-10-20 00:33 UTC (4 hours ago):

TAF CYTR 192330Z 2000/2024 VRB03KT P6SM BKN250 FM200600 07005KT P6SM BKN190 PROB30 2008/2013 2SM BR FM201400 17005KT P6SM FEW015 BKN170 FM202200 VRB03KT P6SM BKN100 RMK NXT FCST BY 200600Z